Pengilly, Minnesota
Current Conditions -  °F | °C
As of 10:25 AM on Thursday 30 Oct 2014 (Local Time) from KHIB Reporting Station
Overcast Overcast  
Wind Chill: 30°   Ceiling: 1600
Heat Index: 38°   Visibility: 10mi
Dew Point: 30°   Wind: 12mph
Humidity: 73%   Direction: 330°NNW
Pressure: 30.09"   Gusts: NA
Location:  47.33°N, 93.2°W
Report Text: KHIB 301525Z AUTO 33010KT 10SM BKN016 OVC080 03/M01 A3009 RMK AO2 T00331011
Loading
Personal Weather Stations






























Interactive Weather Map
Tropical Storm Tracking
New forecast layout! Learn more

10-Day Weather Forecast

Advertisements
Track Severe Weather on mobile